PILOTS ONLINE: 461    ATC ONLINE: 63

KSDM - Brown Field Municipal Airport

Location

City San Diego
Country  United States
Latitude 32° 34' 20" N
Longitude 116° 58' 48" W
Elevation 526 ft
Type Medium Airport

Runways

08L/26R 7972 ft / 150 ft
08R/26L 3180 ft / 75 ft

Weather

METAR
2014/07/31 20:53
KSDM 312053Z 30008G16KT 10SM CLR 28/18 A2991 RMK AO2 SLP121 T02780178 58008 $
TAF
No TAF available

Outbound flights

Inbound flights